sensor_id;sensor_type;location;lat;lon;timestamp;pressure;altitude;pressure_sealevel;temperature;humidity
59391;BME280;53405;57.012;40.984;2023-04-21T00:02:11;100196.75;;;6.76;41.83
59391;BME280;53405;57.012;40.984;2023-04-21T00:04:43;100202.72;;;6.50;42.53
59391;BME280;53405;57.012;40.984;2023-04-21T00:07:16;100205.72;;;6.73;41.99
59391;BME280;53405;57.012;40.984;2023-04-21T00:09:43;100200.56;;;6.63;42.60
59391;BME280;53405;57.012;40.984;2023-04-21T00:12:11;100205.34;;;6.68;41.72
59391;BME280;53405;57.012;40.984;2023-04-21T00:14:39;100205.88;;;6.72;41.99
59391;BME280;53405;57.012;40.984;2023-04-21T00:17:07;100166.50;;;6.45;42.21
59391;BME280;53405;57.012;40.984;2023-04-21T00:19:35;100202.06;;;6.66;42.04
59391;BME280;53405;57.012;40.984;2023-04-21T00:22:03;100205.06;;;6.71;41.99
59391;BME280;53405;57.012;40.984;2023-04-21T00:24:31;100183.66;;;6.58;41.58
59391;BME280;53405;57.012;40.984;2023-04-21T00:26:59;100202.22;;;6.64;42.09
59391;BME280;53405;57.012;40.984;2023-04-21T00:29:27;100198.78;;;6.64;42.46
59391;BME280;53405;57.012;40.984;2023-04-21T00:31:56;100189.72;;;6.58;42.25
59391;BME280;53405;57.012;40.984;2023-04-21T00:34:24;100172.56;;;6.46;42.23
59391;BME280;53405;57.012;40.984;2023-04-21T00:36:51;100188.16;;;6.38;42.41
59391;BME280;53405;57.012;40.984;2023-04-21T00:39:19;100197.47;;;6.50;42.54
59391;BME280;53405;57.012;40.984;2023-04-21T00:41:47;100198.13;;;6.52;42.29
59391;BME280;53405;57.012;40.984;2023-04-21T00:44:15;100191.69;;;6.46;42.76
59391;BME280;53405;57.012;40.984;2023-04-21T00:46:42;100195.28;;;6.45;43.40
59391;BME280;53405;57.012;40.984;2023-04-21T00:49:10;100188.16;;;6.38;42.53
59391;BME280;53405;57.012;40.984;2023-04-21T00:51:40;100188.03;;;6.39;42.57
59391;BME280;53405;57.012;40.984;2023-04-21T00:54:10;100190.41;;;6.32;43.66
59391;BME280;53405;57.012;40.984;2023-04-21T00:56:38;100190.97;;;6.26;43.66
59391;BME280;53405;57.012;40.984;2023-04-21T00:59:06;100188.81;;;6.22;43.92
59391;BME280;53405;57.012;40.984;2023-04-21T01:01:34;100186.63;;;6.17;43.88
59391;BME280;53405;57.012;40.984;2023-04-21T01:04:03;100187.56;;;6.16;43.49
59391;BME280;53405;57.012;40.984;2023-04-21T01:06:32;100179.72;;;6.16;43.85
59391;BME280;53405;57.012;40.984;2023-04-21T01:09:03;100173.44;;;6.09;44.17
59391;BME280;53405;57.012;40.984;2023-04-21T01:11:32;100185.53;;;6.20;43.48
59391;BME280;53405;57.012;40.984;2023-04-21T01:13:59;100183.63;;;6.12;44.11
59391;BME280;53405;57.012;40.984;2023-04-21T01:16:27;100169.63;;;5.93;44.11
59391;BME280;53405;57.012;40.984;2023-04-21T01:18:56;100177.06;;;5.98;44.48
59391;BME280;53405;57.012;40.984;2023-04-21T01:21:25;100184.91;;;5.98;44.45
59391;BME280;53405;57.012;40.984;2023-04-21T01:23:53;100192.03;;;5.96;44.44
59391;BME280;53405;57.012;40.984;2023-04-21T01:26:21;100188.34;;;5.89;45.17
59391;BME280;53405;57.012;40.984;2023-04-21T01:28:49;100166.09;;;5.75;44.66
59391;BME280;53405;57.012;40.984;2023-04-21T01:31:17;100196.59;;;5.84;45.18
59391;BME280;53405;57.012;40.984;2023-04-21T01:33:45;100187.53;;;5.78;45.38
59391;BME280;53405;57.012;40.984;2023-04-21T01:36:15;100191.00;;;5.79;45.51
59391;BME280;53405;57.012;40.984;2023-04-21T01:38:43;100156.53;;;5.56;45.50
59391;BME280;53405;57.012;40.984;2023-04-21T01:41:11;100167.66;;;5.58;46.19
59391;BME280;53405;57.012;40.984;2023-04-21T01:43:40;100184.94;;;5.69;46.26
59391;BME280;53405;57.012;40.984;2023-04-21T01:46:07;100188.69;;;5.66;46.38
59391;BME280;53405;57.012;40.984;2023-04-21T01:48:37;100191.44;;;5.65;46.36
59391;BME280;53405;57.012;40.984;2023-04-21T01:51:06;100193.34;;;5.63;46.39
59391;BME280;53405;57.012;40.984;2023-04-21T01:53:34;100190.88;;;5.61;46.27
59391;BME280;53405;57.012;40.984;2023-04-21T01:56:01;100182.13;;;5.52;47.42
59391;BME280;53405;57.012;40.984;2023-04-21T01:58:30;100187.75;;;5.48;46.79
59391;BME280;53405;57.012;40.984;2023-04-21T02:00:58;100184.06;;;5.50;46.88
59391;BME280;53405;57.012;40.984;2023-04-21T02:03:26;100177.56;;;5.54;47.30
59391;BME280;53405;57.012;40.984;2023-04-21T02:05:54;100166.69;;;5.59;47.17
59391;BME280;53405;57.012;40.984;2023-04-21T02:08:22;100136.91;;;5.32;47.67
59391;BME280;53405;57.012;40.984;2023-04-21T02:10:50;100169.16;;;5.60;47.36
59391;BME280;53405;57.012;40.984;2023-04-21T02:13:18;100173.72;;;5.58;46.90
59391;BME280;53405;57.012;40.984;2023-04-21T02:15:45;100138.69;;;5.41;47.15
59391;BME280;53405;57.012;40.984;2023-04-21T02:18:13;100181.69;;;5.57;47.82
59391;BME280;53405;57.012;40.984;2023-04-21T02:20:41;100167.09;;;5.54;47.88
59391;BME280;53405;57.012;40.984;2023-04-21T02:23:10;100163.25;;;5.58;47.99
59391;BME280;53405;57.012;40.984;2023-04-21T02:25:38;100156.00;;;5.52;48.50
59391;BME280;53405;57.012;40.984;2023-04-21T02:28:05;100146.50;;;5.51;48.25
59391;BME280;53405;57.012;40.984;2023-04-21T02:30:33;100149.50;;;5.56;47.87
59391;BME280;53405;57.012;40.984;2023-04-21T02:33:01;100136.75;;;5.43;47.65
59391;BME280;53405;57.012;40.984;2023-04-21T02:35:30;100162.84;;;5.53;48.18
59391;BME280;53405;57.012;40.984;2023-04-21T02:37:57;100162.69;;;5.55;48.16
59391;BME280;53405;57.012;40.984;2023-04-21T02:40:25;100129.06;;;5.32;48.29
59391;BME280;53405;57.012;40.984;2023-04-21T02:42:53;100167.94;;;5.55;48.03
59391;BME280;53405;57.012;40.984;2023-04-21T02:45:21;100161.06;;;5.54;47.80
59391;BME280;53405;57.012;40.984;2023-04-21T02:47:50;100165.91;;;5.49;48.24
59391;BME280;53405;57.012;40.984;2023-04-21T02:50:18;100156.41;;;5.48;48.15
59391;BME280;53405;57.012;40.984;2023-04-21T02:52:45;100142.94;;;5.33;48.20
59391;BME280;53405;57.012;40.984;2023-04-21T02:55:13;100165.06;;;5.48;48.08
59391;BME280;53405;57.012;40.984;2023-04-21T02:57:41;100160.09;;;5.55;49.00
59391;BME280;53405;57.012;40.984;2023-04-21T03:00:09;100165.31;;;5.65;48.96
59391;BME280;53405;57.012;40.984;2023-04-21T03:02:41;100137.97;;;5.49;48.80
59391;BME280;53405;57.012;40.984;2023-04-21T03:05:09;100152.78;;;5.68;48.45
59391;BME280;53405;57.012;40.984;2023-04-21T03:07:36;100161.56;;;5.67;48.21
59391;BME280;53405;57.012;40.984;2023-04-21T03:10:05;100161.19;;;5.62;48.91
59391;BME280;53405;57.012;40.984;2023-04-21T03:12:33;100165.13;;;5.76;48.65
59391;BME280;53405;57.012;40.984;2023-04-21T03:15:03;100165.38;;;5.83;48.05
59391;BME280;53405;57.012;40.984;2023-04-21T03:17:31;100156.16;;;5.88;48.93
59391;BME280;53405;57.012;40.984;2023-04-21T03:20:00;100162.34;;;5.97;48.91
59391;BME280;53405;57.012;40.984;2023-04-21T03:22:29;100164.94;;;5.97;48.44
59391;BME280;53405;57.012;40.984;2023-04-21T03:24:59;100169.03;;;6.09;49.34
59391;BME280;53405;57.012;40.984;2023-04-21T03:27:27;100171.75;;;6.18;48.07
59391;BME280;53405;57.012;40.984;2023-04-21T03:29:55;100149.34;;;6.05;47.53
59391;BME280;53405;57.012;40.984;2023-04-21T03:32:23;100161.84;;;6.11;48.16
59391;BME280;53405;57.012;40.984;2023-04-21T03:34:51;100153.44;;;6.18;47.70
59391;BME280;53405;57.012;40.984;2023-04-21T03:37:20;100170.00;;;6.36;47.44
59391;BME280;53405;57.012;40.984;2023-04-21T03:39:48;100171.53;;;6.39;48.40
59391;BME280;53405;57.012;40.984;2023-04-21T03:42:17;100174.50;;;6.44;47.21
59391;BME280;53405;57.012;40.984;2023-04-21T03:44:45;100165.53;;;6.46;46.73
59391;BME280;53405;57.012;40.984;2023-04-21T03:47:15;100158.66;;;6.45;47.34
59391;BME280;53405;57.012;40.984;2023-04-21T03:49:43;100172.75;;;6.62;47.92
59391;BME280;53405;57.012;40.984;2023-04-21T03:52:12;100160.19;;;6.66;47.46
59391;BME280;53405;57.012;40.984;2023-04-21T03:54:39;100167.81;;;6.77;47.41
59391;BME280;53405;57.012;40.984;2023-04-21T03:57:07;100160.59;;;6.89;47.85
59391;BME280;53405;57.012;40.984;2023-04-21T03:59:35;100155.19;;;6.91;47.27
59391;BME280;53405;57.012;40.984;2023-04-21T04:02:03;100166.78;;;6.88;47.56
59391;BME280;53405;57.012;40.984;2023-04-21T04:04:31;100182.63;;;7.04;47.18
59391;BME280;53405;57.012;40.984;2023-04-21T04:06:59;100159.34;;;7.01;48.25
59391;BME280;53405;57.012;40.984;2023-04-21T04:09:27;100158.84;;;7.16;47.61
59391;BME280;53405;57.012;40.984;2023-04-21T04:11:54;100164.75;;;7.18;45.84
59391;BME280;53405;57.012;40.984;2023-04-21T04:14:23;100163.31;;;7.23;46.23
59391;BME280;53405;57.012;40.984;2023-04-21T04:16:50;100153.06;;;7.30;47.19
59391;BME280;53405;57.012;40.984;2023-04-21T04:19:18;100165.44;;;7.46;47.44
59391;BME280;53405;57.012;40.984;2023-04-21T04:21:46;100162.88;;;7.54;47.39
59391;BME280;53405;57.012;40.984;2023-04-21T04:24:15;100167.41;;;7.70;46.54
59391;BME280;53405;57.012;40.984;2023-04-21T04:26:43;100163.22;;;7.86;46.31
59391;BME280;53405;57.012;40.984;2023-04-21T04:29:10;100164.75;;;7.96;45.73
59391;BME280;53405;57.012;40.984;2023-04-21T04:31:40;100170.78;;;7.89;45.69
59391;BME280;53405;57.012;40.984;2023-04-21T04:34:09;100167.09;;;8.08;46.14
59391;BME280;53405;57.012;40.984;2023-04-21T04:36:40;100155.09;;;7.97;45.21
59391;BME280;53405;57.012;40.984;2023-04-21T04:39:08;100168.06;;;8.07;46.12
59391;BME280;53405;57.012;40.984;2023-04-21T04:41:37;100157.78;;;8.13;44.29
59391;BME280;53405;57.012;40.984;2023-04-21T04:44:04;100158.13;;;8.19;45.44
59391;BME280;53405;57.012;40.984;2023-04-21T04:46:32;100162.13;;;8.31;45.30
59391;BME280;53405;57.012;40.984;2023-04-21T04:49:00;100155.59;;;8.43;44.38
59391;BME280;53405;57.012;40.984;2023-04-21T04:51:28;100155.44;;;8.45;43.65
59391;BME280;53405;57.012;40.984;2023-04-21T04:53:56;100150.09;;;8.55;44.00
59391;BME280;53405;57.012;40.984;2023-04-21T04:56:24;100152.06;;;8.61;44.40
59391;BME280;53405;57.012;40.984;2023-04-21T04:58:52;100155.03;;;8.74;44.46
59391;BME280;53405;57.012;40.984;2023-04-21T05:01:20;100155.88;;;8.91;43.77
59391;BME280;53405;57.012;40.984;2023-04-21T05:03:47;100147.84;;;9.01;42.90
59391;BME280;53405;57.012;40.984;2023-04-21T05:06:15;100138.97;;;9.10;42.54
59391;BME280;53405;57.012;40.984;2023-04-21T05:08:43;100134.72;;;9.26;43.53
59391;BME280;53405;57.012;40.984;2023-04-21T05:11:11;100149.13;;;9.46;43.44
59391;BME280;53405;57.012;40.984;2023-04-21T05:13:39;100143.03;;;9.54;41.32
59391;BME280;53405;57.012;40.984;2023-04-21T05:16:07;100143.84;;;9.63;42.13
59391;BME280;53405;57.012;40.984;2023-04-21T05:18:36;100134.78;;;9.73;41.07
59391;BME280;53405;57.012;40.984;2023-04-21T05:21:04;100128.53;;;9.74;41.45
59391;BME280;53405;57.012;40.984;2023-04-21T05:23:32;100135.56;;;9.82;39.46
59391;BME280;53405;57.012;40.984;2023-04-21T05:26:00;100134.25;;;9.78;39.78
59391;BME280;53405;57.012;40.984;2023-04-21T05:28:29;100132.75;;;9.84;40.67
59391;BME280;53405;57.012;40.984;2023-04-21T05:30:58;100133.09;;;9.89;40.33
59391;BME280;53405;57.012;40.984;2023-04-21T05:33:26;100135.97;;;10.02;40.93
59391;BME280;53405;57.012;40.984;2023-04-21T05:35:54;100125.63;;;10.01;39.10
59391;BME280;53405;57.012;40.984;2023-04-21T05:38:21;100135.44;;;10.15;39.77
59391;BME280;53405;57.012;40.984;2023-04-21T05:40:53;100135.41;;;10.23;39.50
59391;BME280;53405;57.012;40.984;2023-04-21T05:43:22;100122.91;;;10.25;38.80
59391;BME280;53405;57.012;40.984;2023-04-21T05:45:50;100135.81;;;10.43;39.21
59391;BME280;53405;57.012;40.984;2023-04-21T05:48:17;100131.44;;;10.59;40.24
59391;BME280;53405;57.012;40.984;2023-04-21T05:50:45;100098.53;;;10.55;39.15
59391;BME280;53405;57.012;40.984;2023-04-21T05:53:13;100130.81;;;10.80;39.20
59391;BME280;53405;57.012;40.984;2023-04-21T05:55:41;100130.94;;;10.87;39.11
59391;BME280;53405;57.012;40.984;2023-04-21T05:58:08;100127.81;;;11.06;38.34
59391;BME280;53405;57.012;40.984;2023-04-21T06:00:36;100124.38;;;11.20;38.35
59391;BME280;53405;57.012;40.984;2023-04-21T06:03:04;100112.59;;;11.31;37.28
59391;BME280;53405;57.012;40.984;2023-04-21T06:05:33;100087.81;;;11.02;36.92
59391;BME280;53405;57.012;40.984;2023-04-21T06:08:01;100117.84;;;11.16;38.33
59391;BME280;53405;57.012;40.984;2023-04-21T06:10:29;100122.16;;;11.32;38.37
59391;BME280;53405;57.012;40.984;2023-04-21T06:12:57;100122.53;;;11.44;37.86
59391;BME280;53405;57.012;40.984;2023-04-21T06:15:25;100113.34;;;11.40;36.38
59391;BME280;53405;57.012;40.984;2023-04-21T06:17:53;100119.78;;;11.37;38.77
59391;BME280;53405;57.012;40.984;2023-04-21T06:20:24;100116.34;;;11.52;38.17
59391;BME280;53405;57.012;40.984;2023-04-21T06:22:52;100097.97;;;11.58;37.99
59391;BME280;53405;57.012;40.984;2023-04-21T06:25:20;100117.53;;;11.64;37.53
59391;BME280;53405;57.012;40.984;2023-04-21T06:27:48;100119.81;;;11.67;36.73
59391;BME280;53405;57.012;40.984;2023-04-21T06:30:16;100116.28;;;11.75;37.85
59391;BME280;53405;57.012;40.984;2023-04-21T06:32:44;100120.09;;;11.87;37.86
59391;BME280;53405;57.012;40.984;2023-04-21T06:35:14;100112.47;;;11.92;37.38
59391;BME280;53405;57.012;40.984;2023-04-21T06:37:41;100110.91;;;11.98;37.59
59391;BME280;53405;57.012;40.984;2023-04-21T06:40:10;100111.91;;;11.97;38.00
59391;BME280;53405;57.012;40.984;2023-04-21T06:42:38;100086.59;;;11.73;37.43
59391;BME280;53405;57.012;40.984;2023-04-21T06:45:07;100116.06;;;11.91;37.83
59391;BME280;53405;57.012;40.984;2023-04-21T06:47:35;100112.28;;;11.94;38.30
59391;BME280;53405;57.012;40.984;2023-04-21T06:50:03;100091.13;;;11.79;37.25
59391;BME280;53405;57.012;40.984;2023-04-21T06:52:32;100101.44;;;11.89;39.14
59391;BME280;53405;57.012;40.984;2023-04-21T06:55:00;100095.59;;;12.08;37.87
59391;BME280;53405;57.012;40.984;2023-04-21T06:57:30;100095.13;;;12.20;37.16
59391;BME280;53405;57.012;40.984;2023-04-21T06:59:58;100085.47;;;12.27;37.48
59391;BME280;53405;57.012;40.984;2023-04-21T07:02:25;100087.00;;;12.36;37.78
59391;BME280;53405;57.012;40.984;2023-04-21T07:04:53;100094.84;;;12.51;36.48
59391;BME280;53405;57.012;40.984;2023-04-21T07:07:21;100072.00;;;12.43;36.52
59391;BME280;53405;57.012;40.984;2023-04-21T07:09:49;100074.28;;;12.46;36.59
59391;BME280;53405;57.012;40.984;2023-04-21T07:12:16;100079.75;;;12.45;36.96
59391;BME280;53405;57.012;40.984;2023-04-21T07:14:44;100076.44;;;12.36;36.35
59391;BME280;53405;57.012;40.984;2023-04-21T07:17:12;100076.25;;;12.38;36.55
59391;BME280;53405;57.012;40.984;2023-04-21T07:19:40;100075.72;;;12.49;36.79
59391;BME280;53405;57.012;40.984;2023-04-21T07:22:08;100079.94;;;12.65;36.57
59391;BME280;53405;57.012;40.984;2023-04-21T07:24:35;100067.97;;;12.69;36.18
59391;BME280;53405;57.012;40.984;2023-04-21T07:27:04;100058.25;;;12.70;37.14
59391;BME280;53405;57.012;40.984;2023-04-21T07:29:32;100070.66;;;12.97;36.14
59391;BME280;53405;57.012;40.984;2023-04-21T07:32:00;100076.31;;;12.94;36.52
59391;BME280;53405;57.012;40.984;2023-04-21T07:34:27;100068.69;;;13.06;36.45
59391;BME280;53405;57.012;40.984;2023-04-21T07:36:55;100072.88;;;13.22;36.45
59391;BME280;53405;57.012;40.984;2023-04-21T07:39:24;100063.88;;;13.45;35.80
59391;BME280;53405;57.012;40.984;2023-04-21T07:41:52;100047.16;;;13.37;35.02
59391;BME280;53405;57.012;40.984;2023-04-21T07:44:21;100065.81;;;13.58;36.19
59391;BME280;53405;57.012;40.984;2023-04-21T07:46:52;100057.28;;;13.62;34.62
59391;BME280;53405;57.012;40.984;2023-04-21T07:49:20;100062.03;;;13.39;34.49
59391;BME280;53405;57.012;40.984;2023-04-21T07:51:48;100069.75;;;13.12;34.87
59391;BME280;53405;57.012;40.984;2023-04-21T07:54:18;100063.56;;;13.26;35.17
59391;BME280;53405;57.012;40.984;2023-04-21T08:01:57;100050.97;;;13.70;34.50
59391;BME280;53405;57.012;40.984;2023-04-21T08:04:25;100056.63;;;14.02;35.42
59391;BME280;53405;57.012;40.984;2023-04-21T08:06:53;100053.03;;;14.36;35.19
59391;BME280;53405;57.012;40.984;2023-04-21T08:09:21;100056.97;;;14.67;33.99
59391;BME280;53405;57.012;40.984;2023-04-21T08:11:49;100034.16;;;14.73;33.79
59391;BME280;53405;57.012;40.984;2023-04-21T08:14:17;100054.75;;;15.04;33.91
59391;BME280;53405;57.012;40.984;2023-04-21T08:16:45;100046.16;;;15.02;31.86
59391;BME280;53405;57.012;40.984;2023-04-21T08:19:13;100041.88;;;15.01;32.94
59391;BME280;53405;57.012;40.984;2023-04-21T08:21:40;100040.47;;;14.92;33.15
59391;BME280;53405;57.012;40.984;2023-04-21T08:24:08;100036.97;;;15.25;33.43
59391;BME280;53405;57.012;40.984;2023-04-21T08:26:36;100011.13;;;15.59;31.54
59391;BME280;53405;57.012;40.984;2023-04-21T08:29:04;100031.56;;;16.10;32.06
59391;BME280;53405;57.012;40.984;2023-04-21T08:31:33;100033.78;;;16.45;30.16
59391;BME280;53405;57.012;40.984;2023-04-21T08:34:01;100024.78;;;16.71;31.16
59391;BME280;53405;57.012;40.984;2023-04-21T08:36:29;100018.66;;;16.96;30.78
59391;BME280;53405;57.012;40.984;2023-04-21T08:38:58;100029.28;;;17.40;28.71
59391;BME280;53405;57.012;40.984;2023-04-21T08:41:26;100020.63;;;17.44;28.41
59391;BME280;53405;57.012;40.984;2023-04-21T08:43:55;100020.69;;;17.19;29.04
59391;BME280;53405;57.012;40.984;2023-04-21T08:46:27;100014.78;;;17.36;29.42
59391;BME280;53405;57.012;40.984;2023-04-21T08:48:57;100022.34;;;17.87;27.46
59391;BME280;53405;57.012;40.984;2023-04-21T08:51:26;100009.53;;;18.15;29.01
59391;BME280;53405;57.012;40.984;2023-04-21T08:53:55;100014.31;;;18.36;27.50
59391;BME280;53405;57.012;40.984;2023-04-21T08:56:24;100014.75;;;18.21;28.21
59391;BME280;53405;57.012;40.984;2023-04-21T08:58:53;100011.97;;;18.28;27.08
59391;BME280;53405;57.012;40.984;2023-04-21T09:01:21;100014.13;;;18.19;27.80
59391;BME280;53405;57.012;40.984;2023-04-21T09:03:48;100006.34;;;18.84;26.63
59391;BME280;53405;57.012;40.984;2023-04-21T09:06:16;100004.38;;;18.44;26.44
59391;BME280;53405;57.012;40.984;2023-04-21T09:08:54;99999.38;;;18.35;25.58
59391;BME280;53405;57.012;40.984;2023-04-21T09:11:22;99996.94;;;17.55;27.50
59391;BME280;53405;57.012;40.984;2023-04-21T09:13:50;99995.03;;;17.62;27.62
59391;BME280;53405;57.012;40.984;2023-04-21T09:16:20;99991.94;;;17.46;28.50
59391;BME280;53405;57.012;40.984;2023-04-21T09:18:49;99985.03;;;17.57;26.89
59391;BME280;53405;57.012;40.984;2023-04-21T09:21:19;99961.03;;;17.45;27.97
59391;BME280;53405;57.012;40.984;2023-04-21T09:23:51;99982.75;;;17.61;27.34
59391;BME280;53405;57.012;40.984;2023-04-21T09:26:20;99969.06;;;17.57;27.89
59391;BME280;53405;57.012;40.984;2023-04-21T09:28:52;99973.41;;;17.88;27.38
59391;BME280;53405;57.012;40.984;2023-04-21T09:31:22;99969.59;;;18.62;26.48
59391;BME280;53405;57.012;40.984;2023-04-21T09:33:56;99973.53;;;19.07;26.62
59391;BME280;53405;57.012;40.984;2023-04-21T09:36:27;99962.78;;;19.42;25.85
59391;BME280;53405;57.012;40.984;2023-04-21T09:38:57;99968.59;;;20.09;24.60
59391;BME280;53405;57.012;40.984;2023-04-21T09:41:44;99955.63;;;19.31;24.17
59391;BME280;53405;57.012;40.984;2023-04-21T09:44:12;99952.72;;;19.32;25.90
59391;BME280;53405;57.012;40.984;2023-04-21T09:46:42;99964.56;;;19.94;24.75
59391;BME280;53405;57.012;40.984;2023-04-21T09:49:12;99963.41;;;20.19;24.48
59391;BME280;53405;57.012;40.984;2023-04-21T09:51:44;99947.03;;;20.66;23.63
59391;BME280;53405;57.012;40.984;2023-04-21T09:54:23;99953.91;;;20.79;24.59
59391;BME280;53405;57.012;40.984;2023-04-21T09:56:59;99953.84;;;20.74;24.46
59391;BME280;53405;57.012;40.984;2023-04-21T09:59:41;99946.00;;;21.06;23.19
59391;BME280;53405;57.012;40.984;2023-04-21T10:02:13;99945.75;;;20.35;23.46
59391;BME280;53405;57.012;40.984;2023-04-21T10:04:42;99951.00;;;20.47;23.64
59391;BME280;53405;57.012;40.984;2023-04-21T10:07:11;99952.06;;;20.63;24.27
59391;BME280;53405;57.012;40.984;2023-04-21T10:09:50;99948.97;;;20.03;23.92
59391;BME280;53405;57.012;40.984;2023-04-21T10:12:22;99942.19;;;19.55;26.31
59391;BME280;53405;57.012;40.984;2023-04-21T10:14:55;99951.09;;;20.01;25.11
59391;BME280;53405;57.012;40.984;2023-04-21T10:17:25;99928.13;;;20.73;22.87
59391;BME280;53405;57.012;40.984;2023-04-21T10:19:54;99945.22;;;21.11;22.91
59391;BME280;53405;57.012;40.984;2023-04-21T10:22:29;99939.19;;;20.43;23.81
59391;BME280;53405;57.012;40.984;2023-04-21T10:24:59;99925.72;;;20.54;23.69
59391;BME280;53405;57.012;40.984;2023-04-21T10:27:38;99926.81;;;20.92;23.93
59391;BME280;53405;57.012;40.984;2023-04-21T10:30:23;99903.94;;;21.29;22.54
59391;BME280;53405;57.012;40.984;2023-04-21T10:33:03;99906.28;;;21.70;22.43
59391;BME280;53405;57.012;40.984;2023-04-21T10:38:39;99930.72;;;20.51;24.69
59391;BME280;53405;57.012;40.984;2023-04-21T10:43:52;99886.13;;;19.55;24.57
59391;BME280;53405;57.012;40.984;2023-04-21T10:46:48;99921.28;;;20.09;24.00
59391;BME280;53405;57.012;40.984;2023-04-21T10:49:25;99904.88;;;20.73;23.08
59391;BME280;53405;57.012;40.984;2023-04-21T10:54:41;99906.56;;;22.06;21.97
59391;BME280;53405;57.012;40.984;2023-04-21T10:57:15;99908.16;;;22.01;22.08
59391;BME280;53405;57.012;40.984;2023-04-21T10:59:43;99893.34;;;21.17;21.78
59391;BME280;53405;57.012;40.984;2023-04-21T11:02:13;99908.66;;;20.21;23.80
59391;BME280;53405;57.012;40.984;2023-04-21T11:04:42;99900.63;;;20.78;23.47
59391;BME280;53405;57.012;40.984;2023-04-21T11:07:19;99906.53;;;19.61;24.08
59391;BME280;53405;57.012;40.984;2023-04-21T11:10:05;99894.56;;;18.11;25.54
59391;BME280;53405;57.012;40.984;2023-04-21T11:12:38;99863.13;;;17.47;26.87
59391;BME280;53405;57.012;40.984;2023-04-21T11:15:10;99897.97;;;17.46;28.33
59391;BME280;53405;57.012;40.984;2023-04-21T11:17:39;99861.38;;;17.11;27.38
59391;BME280;53405;57.012;40.984;2023-04-21T11:20:10;99883.75;;;17.03;27.55
59391;BME280;53405;57.012;40.984;2023-04-21T11:22:37;99882.13;;;17.02;27.98
59391;BME280;53405;57.012;40.984;2023-04-21T11:25:16;99880.59;;;17.85;26.75
59391;BME280;53405;57.012;40.984;2023-04-21T11:27:56;99890.75;;;18.66;25.87
59391;BME280;53405;57.012;40.984;2023-04-21T11:30:32;99880.75;;;17.60;27.66
59391;BME280;53405;57.012;40.984;2023-04-21T11:33:01;99885.69;;;17.45;29.22
59391;BME280;53405;57.012;40.984;2023-04-21T11:35:30;99883.78;;;17.64;29.33
59391;BME280;53405;57.012;40.984;2023-04-21T11:38:03;99879.84;;;18.80;26.66
59391;BME280;53405;57.012;40.984;2023-04-21T11:40:47;99876.81;;;18.76;26.48
59391;BME280;53405;57.012;40.984;2023-04-21T11:43:15;99876.06;;;17.74;26.88
59391;BME280;53405;57.012;40.984;2023-04-21T11:45:47;99880.44;;;17.08;27.99
59391;BME280;53405;57.012;40.984;2023-04-21T11:48:16;99887.53;;;16.95;29.24
59391;BME280;53405;57.012;40.984;2023-04-21T11:50:48;99882.44;;;16.94;29.46
59391;BME280;53405;57.012;40.984;2023-04-21T11:53:16;99873.56;;;17.00;29.08
59391;BME280;53405;57.012;40.984;2023-04-21T11:55:47;99872.78;;;16.56;29.09
59391;BME280;53405;57.012;40.984;2023-04-21T11:58:19;99876.00;;;16.39;29.13
59391;BME280;53405;57.012;40.984;2023-04-21T12:00:49;99839.88;;;16.32;30.11
59391;BME280;53405;57.012;40.984;2023-04-21T12:03:18;99844.28;;;16.44;28.36
59391;BME280;53405;57.012;40.984;2023-04-21T12:05:46;99867.53;;;16.05;29.13
59391;BME280;53405;57.012;40.984;2023-04-21T12:08:14;99829.75;;;15.78;30.20
59391;BME280;53405;57.012;40.984;2023-04-21T12:10:44;99869.63;;;15.97;29.69
59391;BME280;53405;57.012;40.984;2023-04-21T12:13:12;99869.41;;;15.98;31.95
59391;BME280;53405;57.012;40.984;2023-04-21T12:15:43;99866.97;;;16.22;30.27
59391;BME280;53405;57.012;40.984;2023-04-21T12:18:14;99851.84;;;16.22;30.86
59391;BME280;53405;57.012;40.984;2023-04-21T12:20:51;99861.47;;;16.42;29.77
59391;BME280;53405;57.012;40.984;2023-04-21T12:23:19;99840.91;;;16.12;29.79
59391;BME280;53405;57.012;40.984;2023-04-21T12:25:47;99856.25;;;16.10;30.01
59391;BME280;53405;57.012;40.984;2023-04-21T12:28:15;99865.28;;;16.02;30.89
59391;BME280;53405;57.012;40.984;2023-04-21T12:30:44;99854.88;;;16.01;30.86
59391;BME280;53405;57.012;40.984;2023-04-21T12:33:11;99843.41;;;15.82;29.68
59391;BME280;53405;57.012;40.984;2023-04-21T12:35:39;99838.88;;;15.82;30.70
59391;BME280;53405;57.012;40.984;2023-04-21T12:38:07;99845.63;;;15.85;30.38
59391;BME280;53405;57.012;40.984;2023-04-21T12:40:34;99836.59;;;15.54;29.79
59391;BME280;53405;57.012;40.984;2023-04-21T12:43:02;99843.06;;;15.33;29.65
59391;BME280;53405;57.012;40.984;2023-04-21T12:45:30;99837.25;;;15.11;30.54
59391;BME280;53405;57.012;40.984;2023-04-21T12:48:15;99796.97;;;14.89;30.61
59391;BME280;53405;57.012;40.984;2023-04-21T12:50:44;99843.91;;;15.27;31.11
59391;BME280;53405;57.012;40.984;2023-04-21T12:53:13;99832.97;;;15.48;32.02
59391;BME280;53405;57.012;40.984;2023-04-21T12:55:41;99831.06;;;15.87;31.07
59391;BME280;53405;57.012;40.984;2023-04-21T12:58:10;99834.88;;;16.23;30.90
59391;BME280;53405;57.012;40.984;2023-04-21T13:00:39;99835.63;;;16.31;29.85
59391;BME280;53405;57.012;40.984;2023-04-21T13:03:15;99826.25;;;16.03;29.03
59391;BME280;53405;57.012;40.984;2023-04-21T13:05:42;99817.72;;;15.69;29.12
59391;BME280;53405;57.012;40.984;2023-04-21T13:08:11;99822.31;;;15.55;29.38
59391;BME280;53405;57.012;40.984;2023-04-21T13:10:40;99818.41;;;15.58;29.73
59391;BME280;53405;57.012;40.984;2023-04-21T13:13:10;99813.38;;;15.75;29.18